Time;durP1;ratioP1;P1;durP2;ratioP2;P2;SDS_P1;SDS_P2;PMS_P1;PMS_P2;Temp;Humidity;BMP_temperature;BMP_pressure;BME280_temperature;BME280_humidity;BME280_pressure;Samples;Min_cycle;Max_cycle;Signal;HPM_P1;HPM_P2
2023/09/29 00:00:44;;;;;;;29.87;11.55;;;;;;;23.28;35.73;100789.19;1787042;80;21317;-78
2023/09/29 00:03:50;;;;;;;16.82;10.98;;;;;;;23.18;36.02;100793.47;1787326;80;21298;-77
2023/09/29 00:06:56;;;;;;;21.87;11.93;;;;;;;23.17;36.20;100790.38;1756438;81;21365;-78
2023/09/29 00:10:03;;;;;;;28.47;11.68;;;;;;;23.02;36.49;100790.08;1787810;80;21357;-78
2023/09/29 00:13:12;;;;;;;23.42;10.43;;;;;;;22.93;36.74;100788.77;1787698;80;21510;-77
2023/09/29 00:16:18;;;;;;;25.80;11.73;;;;;;;22.90;36.81;100796.22;1787629;80;21835;-78
2023/09/29 00:19:25;;;;;;;27.15;11.22;;;;;;;22.91;36.80;100793.73;1757115;81;21329;-79
2023/09/29 00:22:30;;;;;;;19.90;10.78;;;;;;;22.91;36.76;100791.81;1786567;80;21916;-79
2023/09/29 00:25:35;;;;;;;26.33;11.60;;;;;;;22.90;36.80;100793.43;1786389;80;21287;-79
2023/09/29 00:28:41;;;;;;;20.25;10.72;;;;;;;22.84;36.95;100792.45;1787713;80;21314;-79
2023/09/29 00:31:46;;;;;;;21.87;10.72;;;;;;;22.79;36.99;100791.50;1757347;81;21302;-79
2023/09/29 00:34:53;;;;;;;28.85;11.70;;;;;;;22.86;36.95;100790.80;1787462;80;21369;-79
2023/09/29 00:37:59;;;;;;;19.15;10.72;;;;;;;22.82;37.08;100793.77;1786767;80;21896;-79
2023/09/29 00:41:05;;;;;;;19.82;11.05;;;;;;;22.80;37.11;100790.39;1788221;80;21326;-79
2023/09/29 00:44:12;;;;;;;27.13;12.03;;;;;;;22.83;37.05;100794.94;1755808;81;21327;-77
2023/09/29 00:47:20;;;;;;;23.55;10.60;;;;;;;22.87;37.14;100794.76;1786237;80;21949;-78
2023/09/29 00:50:29;;;;;;;26.65;12.47;;;;;;;22.88;37.19;100800.63;1788852;79;21912;-78
2023/09/29 00:53:38;;;;;;;24.30;10.48;;;;;;;22.90;37.27;100801.25;1750528;82;21337;-78
2023/09/29 00:56:45;;;;;;;20.97;11.25;;;;;;;22.95;37.17;100797.17;1782143;80;21295;-78
2023/09/29 00:59:51;;;;;;;18.85;10.90;;;;;;;22.97;37.15;100795.55;1782123;80;21306;-78
2023/09/29 01:02:58;;;;;;;20.00;11.22;;;;;;;23.16;36.81;100800.41;1751541;82;21865;-78
2023/09/29 01:06:09;;;;;;;18.17;10.15;;;;;;;23.16;36.76;100796.22;1780779;80;21299;-78
2023/09/29 01:09:14;;;;;;;27.02;11.03;;;;;;;23.24;36.63;100799.15;1781910;80;21875;-78
2023/09/29 01:12:35;;;;;;;26.35;12.15;;;;;;;23.26;36.60;100803.95;1761878;81;21889;-78
2023/09/29 01:15:41;;;;;;;29.63;10.90;;;;;;;23.02;36.93;100804.02;1780971;80;21318;-78
2023/09/29 01:18:47;;;;;;;20.08;12.88;;;;;;;23.01;36.98;100806.52;1782182;80;21322;-77
2023/09/29 01:21:55;;;;;;;23.70;11.75;;;;;;;22.94;37.06;100805.80;1782067;80;21291;-78
2023/09/29 01:25:01;;;;;;;28.40;10.45;;;;;;;22.81;37.21;100806.02;1751112;82;21303;-78
2023/09/29 01:28:10;;;;;;;22.22;10.93;;;;;;;22.52;37.78;100805.94;1771488;80;21284;-78
2023/09/29 01:31:16;;;;;;;29.25;12.15;;;;;;;22.58;37.79;100807.74;1782719;80;21667;-78
2023/09/29 01:34:24;;;;;;;23.75;12.10;;;;;;;22.39;38.04;100815.39;1752166;82;21311;-78
2023/09/29 01:37:29;;;;;;;18.98;11.25;;;;;;;22.39;37.96;100816.78;1781905;80;21897;-78
2023/09/29 01:40:35;;;;;;;25.23;10.93;;;;;;;22.21;38.36;100821.09;1782586;80;21298;-77
2023/09/29 01:43:41;;;;;;;28.30;11.15;;;;;;;22.27;38.17;100821.52;1751854;82;21339;-77
2023/09/29 01:46:49;;;;;;;22.52;12.03;;;;;;;22.11;38.52;100818.00;1780574;80;21286;-78
2023/09/29 01:49:56;;;;;;;25.68;11.53;;;;;;;22.00;38.74;100811.88;1781821;80;22001;-78
2023/09/29 01:53:02;;;;;;;26.15;12.28;;;;;;;22.20;38.36;100816.59;1762178;80;21369;-78
2023/09/29 01:56:09;;;;;;;25.77;11.97;;;;;;;22.09;38.47;100813.23;1816499;79;21897;-78
2023/09/29 01:59:15;;;;;;;24.45;11.03;;;;;;;22.25;38.18;100813.92;1758834;81;21311;-78
2023/09/29 02:02:22;;;;;;;25.65;11.83;;;;;;;22.36;37.99;100820.62;1815794;79;21893;-78
2023/09/29 02:05:29;;;;;;;23.40;10.48;;;;;;;22.35;38.07;100819.77;1758953;81;21853;-78
2023/09/29 02:08:35;;;;;;;26.42;11.53;;;;;;;22.26;38.24;100828.73;1816797;79;21338;-78
2023/09/29 02:11:44;;;;;;;24.67;11.53;;;;;;;22.27;38.13;100827.09;1759451;81;21329;-78
2023/09/29 02:14:51;;;;;;;19.67;11.83;;;;;;;22.21;38.33;100830.85;1817395;77;21294;-78
2023/09/29 02:17:58;;;;;;;25.65;12.13;;;;;;;22.19;38.41;100821.31;1727462;83;21653;-77
2023/09/29 02:21:09;;;;;;;29.20;12.47;;;;;;;22.23;38.45;100825.03;1783686;80;21338;-78
2023/09/29 02:24:13;;;;;;;29.77;12.68;;;;;;;22.15;38.63;100824.28;1727052;83;22000;-77
2023/09/29 02:27:19;;;;;;;28.27;12.15;;;;;;;21.90;39.11;100827.78;1782390;80;21298;-78
2023/09/29 02:30:25;;;;;;;21.85;13.03;;;;;;;21.83;39.25;100825.12;1730927;81;21537;-78
2023/09/29 02:33:32;;;;;;;25.12;13.18;;;;;;;21.83;39.31;100824.23;1815813;79;21307;-78
2023/09/29 02:36:40;;;;;;;23.77;12.63;;;;;;;21.79;39.46;100823.89;1758345;81;21341;-78
2023/09/29 02:39:46;;;;;;;24.90;11.73;;;;;;;21.80;39.58;100828.36;1816067;79;21318;-77
2023/09/29 02:42:54;;;;;;;30.70;13.68;;;;;;;21.87;39.45;100829.64;1758924;81;21900;-78
2023/09/29 02:46:00;;;;;;;25.72;12.40;;;;;;;21.81;39.57;100825.88;1806782;79;21300;-78
2023/09/29 02:49:09;;;;;;;24.92;12.73;;;;;;;21.63;39.94;100835.14;1805390;79;21292;-78
2023/09/29 02:52:15;;;;;;;32.15;14.07;;;;;;;21.52;40.15;100827.61;1803610;79;21308;-78
2023/09/29 02:55:21;;;;;;;27.98;12.88;;;;;;;21.45;40.39;100828.23;1804087;79;22508;-77
2023/09/29 02:58:28;;;;;;;31.30;13.40;;;;;;;21.49;40.44;100833.63;1805231;79;22474;-78
2023/09/29 03:01:34;;;;;;;25.20;13.98;;;;;;;21.60;40.26;100828.67;1811003;79;21360;-77
2023/09/29 03:04:43;;;;;;;29.07;14.00;;;;;;;21.50;40.39;100831.18;1758825;81;21346;-78
2023/09/29 03:07:49;;;;;;;21.37;12.15;;;;;;;21.55;40.40;100830.44;1815733;79;21314;-77
2023/09/29 03:10:55;;;;;;;28.20;13.30;;;;;;;21.48;40.55;100830.55;1757174;81;21878;-77
2023/09/29 03:13:55;;;;;;;36.38;13.40;;;;;;;21.47;40.73;100835.81;1817244;79;21326;-78
2023/09/29 03:17:04;;;;;;;25.43;13.53;;;;;;;21.53;40.56;100830.69;1758347;81;21639;-78
2023/09/29 03:20:12;;;;;;;28.75;14.40;;;;;;;21.41;40.71;100833.98;1817389;79;21314;-78
2023/09/29 03:23:17;;;;;;;27.58;14.35;;;;;;;21.43;40.70;100840.15;1757911;81;22424;-78
2023/09/29 03:26:25;;;;;;;27.07;12.93;;;;;;;21.38;40.79;100841.40;1815664;79;21326;-78
2023/09/29 03:29:31;;;;;;;40.67;14.68;;;;;;;21.38;40.84;100841.40;1758651;80;21299;-78
2023/09/29 03:32:40;;;;;;;27.35;13.53;;;;;;;21.28;41.10;100846.09;1760478;81;21907;-78
2023/09/29 03:35:48;;;;;;;28.35;14.15;;;;;;;21.22;41.36;100839.20;1760744;81;21321;-78
2023/09/29 03:38:55;;;;;;;25.60;13.68;;;;;;;21.18;41.62;100843.02;1738607;81;21845;-77
2023/09/29 03:42:00;;;;;;;28.67;14.20;;;;;;;20.92;42.10;100842.25;1760739;81;21317;-78
2023/09/29 03:45:06;;;;;;;34.38;13.55;;;;;;;20.86;42.33;100845.96;1775445;79;21298;-78
2023/09/29 03:48:15;;;;;;;22.25;12.13;;;;;;;20.92;42.34;100848.34;1791058;80;21897;-79
2023/09/29 03:51:31;;;;;;;28.12;13.62;;;;;;;20.94;42.38;100846.20;1792199;80;21564;-79
2023/09/29 03:54:36;;;;;;;30.65;13.15;;;;;;;21.02;42.25;100841.70;1788549;80;21370;-78
2023/09/29 03:57:44;;;;;;;25.17;13.62;;;;;;;21.05;42.30;100845.96;1782928;80;21378;-79
2023/09/29 04:00:51;;;;;;;34.45;13.28;;;;;;;20.98;42.43;100845.17;1783242;80;21385;-79
2023/09/29 04:03:57;;;;;;;38.20;14.85;;;;;;;21.04;42.47;100839.55;1783245;80;21313;-79
2023/09/29 04:07:04;;;;;;;25.43;13.80;;;;;;;21.26;42.23;100844.62;1783344;80;21342;-78
2023/09/29 04:10:09;;;;;;;32.20;12.88;;;;;;;21.31;42.06;100844.80;1783560;80;21349;-79
2023/09/29 04:13:16;;;;;;;29.67;13.40;;;;;;;21.42;41.90;100844.87;1783301;80;21956;-79
2023/09/29 04:16:23;;;;;;;30.57;13.10;;;;;;;21.49;41.79;100844.77;1783151;80;21279;-79
2023/09/29 04:19:29;;;;;;;21.17;12.80;;;;;;;21.44;41.87;100844.63;1783395;80;21318;-78
2023/09/29 04:22:37;;;;;;;28.25;13.93;;;;;;;21.49;41.84;100844.77;1783426;80;21314;-78
2023/09/29 04:25:43;;;;;;;29.23;12.85;;;;;;;21.62;41.62;100843.73;1783193;80;21350;-78
2023/09/29 04:28:54;;;;;;;28.25;13.45;;;;;;;21.83;41.29;100852.08;1782686;80;21311;-78
2023/09/29 04:31:59;;;;;;;24.77;12.58;;;;;;;21.85;41.21;100852.72;1782074;80;21294;-77
2023/09/29 04:35:05;;;;;;;24.15;12.25;;;;;;;22.20;40.56;100842.52;1783705;80;21973;-77
2023/09/29 04:38:10;;;;;;;26.52;12.30;;;;;;;22.28;40.45;100843.27;1783122;80;21362;-77
2023/09/29 04:41:16;;;;;;;25.05;11.95;;;;;;;22.40;40.23;100848.31;1783054;80;21366;-77
2023/09/29 04:44:21;;;;;;;30.50;13.83;;;;;;;22.43;40.23;100848.66;1783207;80;21298;-78
2023/09/29 04:47:27;;;;;;;34.33;13.50;;;;;;;22.60;40.08;100851.58;1783177;80;21862;-77
2023/09/29 04:50:34;;;;;;;29.70;14.43;;;;;;;22.76;39.94;100842.17;1783250;80;21318;-77
2023/09/29 04:53:41;;;;;;;21.20;13.15;;;;;;;22.87;39.69;100843.56;1783360;80;21302;-78
2023/09/29 04:56:47;;;;;;;34.67;13.18;;;;;;;22.97;39.50;100841.58;1780930;79;21889;-78
2023/09/29 04:59:56;;;;;;;25.15;12.13;;;;;;;22.86;39.62;100839.60;1779495;80;21322;-78
2023/09/29 05:03:03;;;;;;;33.48;12.50;;;;;;;22.79;39.72;100836.95;1779586;80;21330;-78
2023/09/29 05:06:10;;;;;;;27.32;12.40;;;;;;;22.78;39.75;100834.42;1780879;80;21299;-78
2023/09/29 05:09:15;;;;;;;22.35;11.78;;;;;;;23.05;39.27;100848.14;1780498;80;21322;-77
2023/09/29 05:12:22;;;;;;;23.77;11.20;;;;;;;23.17;39.01;100845.34;1780276;80;21346;-77
2023/09/29 05:15:28;;;;;;;22.67;11.55;;;;;;;23.16;38.99;100850.63;1774930;79;21327;-78
2023/09/29 05:18:34;;;;;;;26.02;11.68;;;;;;;23.21;38.97;100847.39;1768061;80;21353;-78
2023/09/29 05:21:40;;;;;;;23.07;11.43;;;;;;;23.36;38.71;100846.86;1753572;81;21298;-77
2023/09/29 05:24:46;;;;;;;23.87;11.55;;;;;;;23.55;38.43;100846.67;1749169;81;21901;-78
2023/09/29 05:27:51;;;;;;;25.15;10.05;;;;;;;23.69;38.12;100851.73;1769061;80;21526;-78
2023/09/29 05:31:03;;;;;;;27.58;10.58;;;;;;;23.89;37.77;100850.42;1750125;81;21837;-78
2023/09/29 05:34:09;;;;;;;26.33;11.18;;;;;;;24.00;37.21;100862.09;1762236;81;21292;-77
2023/09/29 05:37:17;;;;;;;21.30;11.60;;;;;;;24.30;36.81;100855.33;1761224;81;21208;-78
2023/09/29 05:40:23;;;;;;;23.70;11.40;;;;;;;24.43;36.36;100860.63;1755756;81;21302;-77
2023/09/29 05:43:30;;;;;;;21.35;10.53;;;;;;;24.60;35.69;100865.62;1763373;81;21301;-77
2023/09/29 05:46:35;;;;;;;18.57;9.18;;;;;;;24.70;35.25;100860.22;1767552;81;21287;-77
2023/09/29 05:49:40;;;;;;;36.10;9.60;;;;;;;24.97;34.74;100865.06;1757703;81;21543;-77
2023/09/29 05:52:50;;;;;;;24.00;9.90;;;;;;;25.07;33.85;100863.83;1778699;80;21421;-77
2023/09/29 05:55:57;;;;;;;23.62;9.80;;;;;;;25.32;32.62;100859.14;1759539;81;21315;-77
2023/09/29 05:59:04;;;;;;;27.75;10.10;;;;;;;25.38;32.19;100864.23;1779662;80;21281;-78
2023/09/29 06:02:11;;;;;;;24.43;9.35;;;;;;;25.51;31.96;100860.20;1782509;80;21301;-77
2023/09/29 06:05:18;;;;;;;21.25;10.00;;;;;;;25.41;31.87;100872.13;1783916;78;21894;-78
2023/09/29 06:08:24;;;;;;;27.20;9.43;;;;;;;25.72;31.56;100862.11;1783059;80;21309;-78
2023/09/29 06:11:24;;;;;;;23.40;8.83;;;;;;;25.85;31.35;100859.48;1784939;79;21266;-79
2023/09/29 06:14:17;;;;;;;26.50;9.78;;;;;;;26.00;30.79;100868.88;1785515;79;21281;-79
2023/09/29 06:17:04;;;;;;;39.18;10.08;;;;;;;26.16;30.94;100860.60;1790252;79;21290;-79
2023/09/29 06:19:58;;;;;;;21.12;9.43;;;;;;;26.19;30.58;100853.91;1786975;80;21958;-79
2023/09/29 06:22:43;;;;;;;20.85;9.50;;;;;;;26.18;30.44;100852.79;1791363;80;21309;-79
2023/09/29 06:25:35;;;;;;;19.62;9.00;;;;;;;26.39;30.36;100848.19;1787476;79;21264;-78
2023/09/29 06:28:41;;;;;;;25.10;9.08;;;;;;;26.59;30.00;100852.59;1807710;78;21299;-79
2023/09/29 06:31:49;;;;;;;25.12;9.28;;;;;;;26.71;29.77;100860.80;1788572;80;21901;-78
2023/09/29 06:34:55;;;;;;;18.70;8.45;;;;;;;26.59;30.13;100859.61;1790337;80;21326;-79
2023/09/29 06:38:01;;;;;;;16.35;8.80;;;;;;;26.66;29.89;100856.55;1790298;80;21356;-78
2023/09/29 06:41:07;;;;;;;24.80;9.70;;;;;;;26.90;29.77;100861.20;1789213;80;21404;-78
2023/09/29 06:44:15;;;;;;;22.00;9.65;;;;;;;26.89;29.99;100859.52;1787769;78;21305;-79
2023/09/29 06:47:23;;;;;;;24.87;9.90;;;;;;;27.08;29.94;100857.97;1789176;78;21369;-79
2023/09/29 06:50:30;;;;;;;21.33;9.93;;;;;;;27.16;29.96;100860.83;1785900;80;21313;-79
2023/09/29 06:53:37;;;;;;;20.57;8.88;;;;;;;27.24;29.76;100856.94;1794750;78;21922;-79
2023/09/29 06:56:36;;;;;;;21.48;9.50;;;;;;;27.33;29.79;100860.03;1790254;78;21840;-79
2023/09/29 06:59:37;;;;;;;23.15;8.40;;;;;;;27.34;29.42;100855.30;1792375;78;21285;-79
2023/09/29 07:02:44;;;;;;;21.07;8.88;;;;;;;27.42;29.51;100857.55;1789707;80;21252;-79
2023/09/29 07:05:49;;;;;;;25.05;9.53;;;;;;;27.62;29.42;100858.17;1783491;78;21286;-80
2023/09/29 07:08:55;;;;;;;16.77;8.90;;;;;;;28.00;28.89;100859.15;1785862;78;21250;-79
2023/09/29 07:12:01;;;;;;;19.80;8.35;;;;;;;28.23;28.53;100863.39;1784152;78;21877;-78
2023/09/29 07:15:09;;;;;;;23.87;8.85;;;;;;;28.75;28.08;100861.42;1783467;78;21258;-79
2023/09/29 07:18:16;;;;;;;24.70;9.15;;;;;;;28.89;27.90;100865.86;1787630;78;21290;-79
2023/09/29 07:21:22;;;;;;;14.73;8.33;;;;;;;29.02;27.58;100862.49;1782029;78;21266;-79
2023/09/29 07:24:21;;;;;;;12.58;7.67;;;;;;;29.16;27.45;100858.51;1783370;78;21232;-79
2023/09/29 07:27:29;;;;;;;20.15;7.87;;;;;;;28.99;27.55;100857.45;1784886;79;21255;-80
2023/09/29 07:30:35;;;;;;;21.42;8.30;;;;;;;29.13;27.61;100864.16;1781600;78;21815;-80
2023/09/29 07:33:41;;;;;;;19.12;8.33;;;;;;;29.28;27.33;100861.28;1788294;78;21355;-80
2023/09/29 07:36:48;;;;;;;20.23;8.53;;;;;;;29.33;26.91;100856.77;1781976;78;21204;-79
2023/09/29 07:39:54;;;;;;;21.02;8.00;;;;;;;29.29;27.29;100864.37;1756177;80;21290;-80
2023/09/29 07:43:00;;;;;;;24.32;8.13;;;;;;;29.32;27.13;100859.31;1790676;78;21338;-80
2023/09/29 07:46:05;;;;;;;19.50;8.33;;;;;;;29.34;27.12;100858.44;1796044;78;21290;-80
2023/09/29 07:49:14;;;;;;;17.50;7.60;;;;;;;29.32;26.96;100851.70;1788728;78;21672;-79
2023/09/29 07:52:25;;;;;;;22.20;8.00;;;;;;;29.56;27.10;100852.47;1804149;77;21287;-80
2023/09/29 07:55:29;;;;;;;16.45;6.60;;;;;;;29.53;26.95;100851.02;1791865;78;21298;-80
2023/09/29 07:58:36;;;;;;;21.48;7.08;;;;;;;29.53;26.85;100852.43;1787037;78;21293;-80
2023/09/29 08:01:43;;;;;;;14.90;6.97;;;;;;;29.63;26.77;100849.58;1774055;79;21334;-81
2023/09/29 08:04:49;;;;;;;19.32;6.90;;;;;;;29.81;26.58;100841.59;1735969;81;21920;-81
2023/09/29 08:07:55;;;;;;;15.03;6.95;;;;;;;29.89;26.53;100840.98;1757113;80;21313;-81
2023/09/29 08:11:03;;;;;;;22.02;8.68;;;;;;;30.04;26.48;100838.05;1780463;79;22252;-81
2023/09/29 08:14:08;;;;;;;19.00;6.10;;;;;;;30.12;26.14;100840.81;1741120;81;21317;-81
2023/09/29 08:17:13;;;;;;;19.77;7.25;;;;;;;30.15;25.62;100829.80;1794895;79;22367;-80
2023/09/29 08:20:20;;;;;;;17.32;6.37;;;;;;;30.30;25.80;100833.05;1774027;79;21279;-80
2023/09/29 08:23:30;;;;;;;14.15;5.75;;;;;;;30.05;25.83;100835.49;1784768;79;21420;-78
2023/09/29 08:26:34;;;;;;;12.05;6.10;;;;;;;30.44;25.50;100828.44;1779580;80;21880;-79
2023/09/29 08:29:43;;;;;;;16.80;6.15;;;;;;;30.56;25.66;100819.56;1763300;80;21330;-79
2023/09/29 08:32:56;;;;;;;;;;;;;;;30.76;24.81;100819.37;1752062;80;21664;-79
2023/09/29 08:36:11;;;;;;;20.17;5.47;;;;;;;30.72;24.06;100823.09;1742860;80;20296;-79
2023/09/29 08:39:17;;;;;;;17.98;5.75;;;;;;;30.62;24.31;100820.34;1752983;80;21243;-81
2023/09/29 08:42:45;;;;;;;8.78;4.97;;;;;;;30.65;24.41;100821.17;1783065;79;21302;-81
2023/09/29 08:45:51;;;;;;;17.60;6.22;;;;;;;30.92;23.76;100813.57;1779795;79;21351;-82
2023/09/29 08:49:09;;;;;;;21.37;5.55;;;;;;;31.02;24.08;100817.68;1786272;79;21290;-82
2023/09/29 08:52:17;;;;;;;13.60;5.75;;;;;;;31.00;24.02;100817.13;1789632;79;21306;-82
2023/09/29 08:55:23;;;;;;;16.55;5.20;;;;;;;30.90;23.94;100815.83;1785652;79;21196;-82
2023/09/29 08:58:32;;;;;;;13.90;5.30;;;;;;;30.92;24.01;100810.75;1788185;79;22529;-81
2023/09/29 09:01:40;;;;;;;7.47;4.08;;;;;;;31.29;23.58;100805.22;1773655;79;21354;-81
2023/09/29 09:04:47;;;;;;;14.10;4.95;;;;;;;31.35;22.83;100802.32;1762764;80;21337;-81
2023/09/29 09:07:54;;;;;;;13.15;4.90;;;;;;;31.40;23.26;100804.50;1777527;80;21303;-83
2023/09/29 09:11:11;;;;;;;12.37;5.05;;;;;;;31.54;22.67;100801.19;1752688;80;21524;-82
2023/09/29 09:14:20;;;;;;;8.13;4.15;;;;;;;31.47;22.34;100816.83;1754831;80;21302;-80
2023/09/29 09:17:28;;;;;;;10.93;5.15;;;;;;;31.64;22.45;100803.59;1751608;80;22111;-83
2023/09/29 09:20:43;;;;;;;9.93;4.42;;;;;;;31.85;22.09;100800.73;1753917;80;21750;-80
2023/09/29 09:23:49;;;;;;;11.88;4.40;;;;;;;31.84;21.84;100792.57;1745078;81;21267;-80
2023/09/29 09:26:58;;;;;;;14.03;4.47;;;;;;;31.80;21.89;100790.31;1754712;80;21318;-80
2023/09/29 09:30:06;;;;;;;6.53;2.50;;;;;;;31.82;21.90;100797.13;1752006;80;21362;-80
2023/09/29 09:33:16;;;;;;;7.25;2.67;;;;;;;31.65;19.62;100796.79;1754748;80;21345;-81
2023/09/29 09:36:22;;;;;;;9.83;3.25;;;;;;;31.65;19.48;100794.80;1744511;81;21298;-81
2023/09/29 09:39:29;;;;;;;8.05;3.58;;;;;;;31.67;19.48;100805.25;1755565;80;21299;-81
2023/09/29 09:42:35;;;;;;;10.70;3.10;;;;;;;31.65;19.72;100795.38;1779826;79;21353;-81
2023/09/29 09:45:51;;;;;;;8.53;3.27;;;;;;;31.60;19.68;100804.77;1776306;79;21322;-80
2023/09/29 09:49:08;;;;;;;10.00;3.40;;;;;;;31.61;20.07;100774.52;1776116;79;21310;-81
2023/09/29 09:52:16;;;;;;;11.75;3.60;;;;;;;31.69;19.87;100783.15;1754681;80;21370;-80
2023/09/29 09:55:22;;;;;;;13.28;3.65;;;;;;;31.61;19.81;100775.34;1780116;80;21313;-79
2023/09/29 09:58:27;;;;;;;9.35;2.92;;;;;;;31.77;19.91;100771.73;1770458;80;21332;-80
2023/09/29 10:01:35;;;;;;;10.45;3.77;;;;;;;31.79;20.32;100768.84;1795016;77;21353;-81
2023/09/29 10:04:43;;;;;;;16.62;4.05;;;;;;;32.00;19.96;100768.56;1817862;78;21833;-80
2023/09/29 10:11:21;;;;;;;10.50;3.87;;;;;;;32.19;19.96;100766.52;1803662;78;21290;-82
2023/09/29 10:14:28;;;;;;;10.05;2.83;;;;;;;32.30;19.74;100765.76;1778935;79;21146;-82
2023/09/29 10:17:47;;;;;;;21.80;4.25;;;;;;;32.19;18.80;100770.77;1795970;77;21862;-80
2023/09/29 10:21:00;;;;;;;13.58;2.87;;;;;;;32.23;19.04;100754.85;1795692;78;21290;-80
2023/09/29 10:24:11;;;;;;;4.85;2.67;;;;;;;32.29;18.79;100757.84;1788327;78;21281;-80
2023/09/29 10:27:19;;;;;;;7.42;2.92;;;;;;;32.30;18.91;100751.61;1783174;78;21323;-81
2023/09/29 10:30:25;;;;;;;6.65;2.80;;;;;;;32.10;19.03;100749.99;1751765;80;21873;-79
2023/09/29 10:33:33;;;;;;;9.80;3.37;;;;;;;32.20;18.88;100749.80;1747491;80;21703;-82
2023/09/29 10:36:41;;;;;;;9.35;3.80;;;;;;;32.25;18.86;100758.78;1811315;78;21739;-80
2023/09/29 10:39:35;;;;;;;12.50;3.50;;;;;;;32.42;18.85;100755.36;1788864;80;21896;-80
2023/09/29 10:42:42;;;;;;;8.20;4.05;;;;;;;32.27;18.96;100762.13;1806623;78;21318;-81
2023/09/29 10:45:50;;;;;;;9.05;4.20;;;;;;;32.29;19.11;100749.36;1760634;80;21323;-81
2023/09/29 10:48:59;;;;;;;13.85;4.60;;;;;;;32.26;19.22;100742.05;1816703;77;21319;-81
2023/09/29 10:52:06;;;;;;;8.67;4.47;;;;;;;32.38;19.53;100740.19;1788678;80;21305;-81
2023/09/29 10:55:12;;;;;;;9.93;4.50;;;;;;;32.47;19.34;100733.48;1791838;78;21853;-82
2023/09/29 10:58:19;;;;;;;7.50;4.00;;;;;;;32.74;19.22;100733.22;1775616;78;21274;-82
2023/09/29 11:01:33;;;;;;;13.45;4.62;;;;;;;32.59;19.12;100738.62;1789698;78;21345;-80
2023/09/29 11:04:42;;;;;;;23.80;5.20;;;;;;;32.46;19.25;100725.28;1769018;79;21351;-81
2023/09/29 11:07:55;;;;;;;21.68;4.55;;;;;;;32.55;18.99;100727.08;1759325;80;21206;-80
2023/09/29 11:11:11;;;;;;;12.10;4.87;;;;;;;32.62;18.92;100711.69;1785827;79;21372;-82
2023/09/29 11:14:19;;;;;;;9.33;3.70;;;;;;;32.66;18.98;100713.57;1795597;78;22272;-79
2023/09/29 11:17:28;;;;;;;7.70;3.20;;;;;;;32.53;18.98;100722.89;1787745;78;21412;-81
2023/09/29 11:21:12;;;;;;;10.85;3.52;;;;;;;32.66;18.88;100718.40;1815666;77;22804;-81
2023/09/29 11:24:19;;;;;;;13.25;3.45;;;;;;;32.58;18.83;100718.55;1799020;78;21310;-79
2023/09/29 11:27:32;;;;;;;8.73;3.25;;;;;;;32.45;18.95;100707.47;1796489;78;21327;-80
2023/09/29 11:30:39;;;;;;;9.93;3.02;;;;;;;32.54;18.93;100708.41;1796533;78;21331;-82
2023/09/29 11:33:46;;;;;;;19.48;4.42;;;;;;;32.68;18.60;100705.59;1814709;77;21638;-80
2023/09/29 11:36:53;;;;;;;9.23;3.08;;;;;;;32.81;18.67;100709.58;1788969;78;21294;-81
2023/09/29 11:39:59;;;;;;;9.03;3.10;;;;;;;32.68;18.12;100699.92;1797156;79;21820;-88
2023/09/29 11:43:05;;;;;;;9.00;3.00;;;;;;;32.75;18.32;100691.86;1790048;80;21290;-89
2023/09/29 11:46:18;;;;;;;9.60;3.25;;;;;;;32.80;18.70;100699.41;1746521;81;21613;-90
2023/09/29 11:49:20;;;;;;;8.40;3.27;;;;;;;32.79;18.41;100699.98;1793399;78;21289;-84
2023/09/29 11:52:26;;;;;;;5.83;2.92;;;;;;;32.80;18.21;100696.58;1797457;78;21297;-88
2023/09/29 11:55:32;;;;;;;7.83;3.17;;;;;;;32.84;18.43;100687.68;1791882;78;21278;-89
2023/09/29 11:58:39;;;;;;;14.35;3.37;;;;;;;32.77;18.57;100688.12;1760866;80;21234;-90
2023/09/29 12:01:45;;;;;;;8.05;3.27;;;;;;;32.87;18.52;100690.47;1783279;78;21310;-86
2023/09/29 12:04:52;;;;;;;13.35;4.12;;;;;;;32.78;18.82;100703.95;1792923;78;21289;-84
2023/09/29 12:08:00;;;;;;;11.25;3.67;;;;;;;32.61;19.21;100689.61;1791281;78;21322;-87
2023/09/29 12:11:06;;;;;;;11.93;4.28;;;;;;;32.58;19.36;100680.90;1790038;80;21296;-84
2023/09/29 12:14:00;;;;;;;10.70;4.28;;;;;;;32.63;19.65;100677.96;1791191;80;21851;-87
2023/09/29 12:17:08;;;;;;;10.03;4.05;;;;;;;32.66;19.57;100668.27;1755409;80;21274;-87
2023/09/29 12:20:17;;;;;;;8.28;3.95;;;;;;;32.66;19.60;100673.93;1759525;81;21315;-86
2023/09/29 12:23:24;;;;;;;18.57;4.33;;;;;;;32.24;19.90;100671.63;1759442;81;21289;-87
2023/09/29 12:26:29;;;;;;;38.23;4.37;;;;;;;32.69;19.59;100661.95;1772342;80;21299;-84
2023/09/29 12:29:35;;;;;;;10.45;4.50;;;;;;;32.05;19.92;100662.38;1796871;79;21309;-83
2023/09/29 12:32:44;;;;;;;7.08;3.62;;;;;;;32.66;19.35;100666.02;1799964;79;21291;-86
2023/09/29 12:35:51;;;;;;;8.05;3.75;;;;;;;32.65;19.44;100659.48;1807761;78;21157;-86
2023/09/29 12:38:57;;;;;;;6.67;3.72;;;;;;;31.84;20.16;100651.16;1764340;79;21369;-88
2023/09/29 12:42:03;;;;;;;6.08;3.08;;;;;;;32.41;19.27;100661.12;1808259;79;21288;-87
2023/09/29 12:45:09;;;;;;;14.18;3.10;;;;;;;32.50;18.82;100659.81;1806106;79;21341;-84
2023/09/29 12:48:16;;;;;;;7.03;3.12;;;;;;;32.43;18.92;100659.41;1813482;79;21330;-84
2023/09/29 12:51:25;;;;;;;6.20;3.20;;;;;;;32.56;18.78;100652.91;1780203;79;21333;-80
2023/09/29 12:54:32;;;;;;;6.70;3.37;;;;;;;32.64;18.45;100649.31;1789888;78;21372;-81
2023/09/29 12:57:38;;;;;;;7.62;3.47;;;;;;;32.74;18.65;100640.59;1824173;78;21341;-81
2023/09/29 13:00:45;;;;;;;10.38;3.30;;;;;;;32.69;18.77;100657.70;1811555;77;21372;-80
2023/09/29 13:03:51;;;;;;;9.43;3.60;;;;;;;32.65;18.82;100643.91;1809971;77;21294;-80
2023/09/29 13:06:58;;;;;;;8.70;3.62;;;;;;;32.75;18.75;100638.05;1810553;79;21902;-80
2023/09/29 13:10:04;;;;;;;10.65;3.27;;;;;;;32.69;18.74;100641.29;1812511;79;21914;-80
2023/09/29 13:13:10;;;;;;;11.97;4.03;;;;;;;32.67;18.74;100637.37;1782039;80;21310;-80
2023/09/29 13:16:16;;;;;;;9.88;3.58;;;;;;;32.56;18.84;100631.67;1811429;79;22143;-80
2023/09/29 13:19:23;;;;;;;11.40;3.75;;;;;;;32.65;18.98;100636.00;1786402;80;21337;-81
2023/09/29 13:22:29;;;;;;;11.97;3.40;;;;;;;32.50;18.99;100638.58;1812080;79;21349;-79
2023/09/29 13:25:35;;;;;;;13.88;4.00;;;;;;;32.38;19.10;100634.05;1785256;80;21952;-81
2023/09/29 13:28:40;;;;;;;9.45;3.30;;;;;;;32.40;18.87;100635.97;1812799;79;21877;-81
2023/09/29 13:31:46;;;;;;;9.45;3.55;;;;;;;32.38;19.01;100626.97;1787008;80;21353;-81
2023/09/29 13:34:51;;;;;;;6.70;3.33;;;;;;;32.14;19.18;100623.73;1793059;80;21321;-81
2023/09/29 13:37:57;;;;;;;8.10;3.70;;;;;;;31.88;19.56;100621.11;1787840;80;21901;-81
2023/09/29 13:41:02;;;;;;;12.55;3.55;;;;;;;31.97;19.69;100620.66;1813776;79;21322;-81
2023/09/29 13:44:08;;;;;;;9.43;4.10;;;;;;;32.00;19.75;100625.70;1789614;80;21925;-81
2023/09/29 13:47:14;;;;;;;10.70;3.62;;;;;;;32.03;19.91;100625.06;1813780;79;21354;-82
2023/09/29 13:50:20;;;;;;;8.10;3.70;;;;;;;32.09;19.73;100622.97;1789329;80;21936;-81
2023/09/29 13:53:28;;;;;;;11.80;3.70;;;;;;;31.81;19.90;100626.58;1763585;80;21844;-80
2023/09/29 13:56:33;;;;;;;12.58;3.98;;;;;;;31.89;19.93;100622.20;1755776;81;21350;-80
2023/09/29 13:59:39;;;;;;;7.62;3.42;;;;;;;31.94;20.01;100615.04;1790534;78;21315;-80
2023/09/29 14:02:47;;;;;;;11.90;3.70;;;;;;;32.02;19.95;100613.48;1789013;80;21893;-81
2023/09/29 14:05:53;;;;;;;5.62;3.58;;;;;;;31.68;20.17;100620.31;1791786;79;21901;-80
2023/09/29 14:08:58;;;;;;;13.68;3.95;;;;;;;31.77;20.07;100611.38;1780513;80;21573;-81
2023/09/29 14:12:08;;;;;;;14.85;4.12;;;;;;;31.75;20.14;100609.42;1781614;80;21244;-81
2023/09/29 14:15:17;;;;;;;10.50;3.47;;;;;;;31.64;20.25;100604.28;1759654;81;21290;-81
2023/09/29 14:18:24;;;;;;;18.80;4.00;;;;;;;31.63;20.27;100607.69;1782527;80;21975;-81
2023/09/29 14:21:24;;;;;;;7.65;4.40;;;;;;;31.55;20.36;100609.22;1779651;80;21538;-81